sensor_id;sensor_type;location;lat;lon;timestamp;P1;durP1;ratioP1;P2;durP2;ratioP2
75928;SDS011;64606;44.062;2.986;2023-02-14T00:01:13;36.28;;;14.63;;
75928;SDS011;64606;44.062;2.986;2023-02-14T00:03:39;36.63;;;15.73;;
75928;SDS011;64606;44.062;2.986;2023-02-14T00:06:10;34.95;;;15.23;;
75928;SDS011;64606;44.062;2.986;2023-02-14T00:08:37;88.88;;;35.95;;
75928;SDS011;64606;44.062;2.986;2023-02-14T00:11:05;125.55;;;50.28;;
75928;SDS011;64606;44.062;2.986;2023-02-14T00:13:33;76.03;;;31.00;;
75928;SDS011;64606;44.062;2.986;2023-02-14T00:15:59;123.35;;;49.92;;
75928;SDS011;64606;44.062;2.986;2023-02-14T00:18:25;49.08;;;21.73;;
75928;SDS011;64606;44.062;2.986;2023-02-14T00:21:11;70.90;;;27.38;;
75928;SDS011;64606;44.062;2.986;2023-02-14T00:23:37;41.55;;;17.63;;
75928;SDS011;64606;44.062;2.986;2023-02-14T00:26:03;66.32;;;26.33;;
75928;SDS011;64606;44.062;2.986;2023-02-14T00:28:30;37.42;;;14.88;;
75928;SDS011;64606;44.062;2.986;2023-02-14T00:30:56;27.75;;;11.95;;
75928;SDS011;64606;44.062;2.986;2023-02-14T00:33:22;62.53;;;22.58;;
75928;SDS011;64606;44.062;2.986;2023-02-14T00:35:48;50.22;;;18.77;;
75928;SDS011;64606;44.062;2.986;2023-02-14T00:38:15;34.55;;;12.73;;
75928;SDS011;64606;44.062;2.986;2023-02-14T00:40:41;21.17;;;9.70;;
75928;SDS011;64606;44.062;2.986;2023-02-14T00:43:07;97.65;;;33.45;;
75928;SDS011;64606;44.062;2.986;2023-02-14T00:45:33;52.50;;;19.50;;
75928;SDS011;64606;44.062;2.986;2023-02-14T00:47:59;24.02;;;11.07;;
75928;SDS011;64606;44.062;2.986;2023-02-14T00:50:25;21.75;;;10.00;;
75928;SDS011;64606;44.062;2.986;2023-02-14T00:52:51;22.33;;;9.70;;
75928;SDS011;64606;44.062;2.986;2023-02-14T00:55:17;27.02;;;10.93;;
75928;SDS011;64606;44.062;2.986;2023-02-14T00:57:43;24.30;;;10.48;;
75928;SDS011;64606;44.062;2.986;2023-02-14T01:00:10;40.33;;;16.33;;
75928;SDS011;64606;44.062;2.986;2023-02-14T01:02:37;82.65;;;31.45;;
75928;SDS011;64606;44.062;2.986;2023-02-14T01:05:03;36.58;;;14.93;;
75928;SDS011;64606;44.062;2.986;2023-02-14T01:07:30;23.77;;;10.75;;
75928;SDS011;64606;44.062;2.986;2023-02-14T01:09:56;53.40;;;22.25;;
75928;SDS011;64606;44.062;2.986;2023-02-14T01:12:22;182.65;;;63.47;;
75928;SDS011;64606;44.062;2.986;2023-02-14T01:14:48;82.32;;;29.45;;
75928;SDS011;64606;44.062;2.986;2023-02-14T01:17:14;68.88;;;24.73;;
75928;SDS011;64606;44.062;2.986;2023-02-14T01:19:40;41.33;;;16.85;;
75928;SDS011;64606;44.062;2.986;2023-02-14T01:22:07;48.95;;;18.40;;
75928;SDS011;64606;44.062;2.986;2023-02-14T01:24:34;45.88;;;15.80;;
75928;SDS011;64606;44.062;2.986;2023-02-14T01:27:00;92.00;;;28.95;;
75928;SDS011;64606;44.062;2.986;2023-02-14T01:29:26;37.08;;;14.55;;
75928;SDS011;64606;44.062;2.986;2023-02-14T01:31:52;41.50;;;15.35;;
75928;SDS011;64606;44.062;2.986;2023-02-14T01:34:18;30.23;;;12.13;;
75928;SDS011;64606;44.062;2.986;2023-02-14T01:36:44;40.45;;;17.15;;
75928;SDS011;64606;44.062;2.986;2023-02-14T01:39:11;36.08;;;15.07;;
75928;SDS011;64606;44.062;2.986;2023-02-14T01:41:38;20.50;;;9.88;;
75928;SDS011;64606;44.062;2.986;2023-02-14T01:46:43;17.38;;;8.65;;
75928;SDS011;64606;44.062;2.986;2023-02-14T01:51:37;16.88;;;8.90;;
75928;SDS011;64606;44.062;2.986;2023-02-14T01:54:05;17.50;;;9.10;;
75928;SDS011;64606;44.062;2.986;2023-02-14T01:56:34;21.90;;;8.82;;
75928;SDS011;64606;44.062;2.986;2023-02-14T01:59:02;19.23;;;9.77;;
75928;SDS011;64606;44.062;2.986;2023-02-14T02:01:30;35.58;;;16.08;;
75928;SDS011;64606;44.062;2.986;2023-02-14T02:03:58;39.38;;;16.90;;
75928;SDS011;64606;44.062;2.986;2023-02-14T02:06:26;19.35;;;9.93;;
75928;SDS011;64606;44.062;2.986;2023-02-14T02:11:29;20.92;;;9.90;;
75928;SDS011;64606;44.062;2.986;2023-02-14T02:13:55;19.33;;;8.68;;
75928;SDS011;64606;44.062;2.986;2023-02-14T02:24:39;21.90;;;9.45;;
75928;SDS011;64606;44.062;2.986;2023-02-14T02:27:17;27.00;;;12.95;;
75928;SDS011;64606;44.062;2.986;2023-02-14T02:35:19;19.65;;;8.95;;
75928;SDS011;64606;44.062;2.986;2023-02-14T02:37:50;18.88;;;8.77;;
75928;SDS011;64606;44.062;2.986;2023-02-14T02:45:33;20.15;;;9.85;;
75928;SDS011;64606;44.062;2.986;2023-02-14T02:48:22;20.33;;;9.15;;
75928;SDS011;64606;44.062;2.986;2023-02-14T02:50:51;17.40;;;8.48;;
75928;SDS011;64606;44.062;2.986;2023-02-14T02:53:38;17.17;;;8.45;;
75928;SDS011;64606;44.062;2.986;2023-02-14T02:56:09;16.70;;;8.32;;
75928;SDS011;64606;44.062;2.986;2023-02-14T02:58:57;16.38;;;8.30;;
75928;SDS011;64606;44.062;2.986;2023-02-14T03:01:28;16.52;;;7.97;;
75928;SDS011;64606;44.062;2.986;2023-02-14T03:03:57;17.27;;;8.40;;
75928;SDS011;64606;44.062;2.986;2023-02-14T03:06:46;18.45;;;8.73;;
75928;SDS011;64606;44.062;2.986;2023-02-14T03:09:47;17.00;;;8.13;;
75928;SDS011;64606;44.062;2.986;2023-02-14T03:12:10;18.80;;;8.68;;
75928;SDS011;64606;44.062;2.986;2023-02-14T03:17:16;16.88;;;8.73;;
75928;SDS011;64606;44.062;2.986;2023-02-14T03:20:12;21.15;;;8.57;;
75928;SDS011;64606;44.062;2.986;2023-02-14T03:25:17;17.95;;;8.73;;
75928;SDS011;64606;44.062;2.986;2023-02-14T03:27:52;20.00;;;9.13;;
75928;SDS011;64606;44.062;2.986;2023-02-14T03:33:02;18.20;;;8.88;;
75928;SDS011;64606;44.062;2.986;2023-02-14T03:35:31;19.23;;;9.20;;
75928;SDS011;64606;44.062;2.986;2023-02-14T03:38:10;15.80;;;8.60;;
75928;SDS011;64606;44.062;2.986;2023-02-14T03:40:40;14.93;;;7.88;;
75928;SDS011;64606;44.062;2.986;2023-02-14T03:43:09;18.23;;;8.82;;
75928;SDS011;64606;44.062;2.986;2023-02-14T03:45:38;19.08;;;8.60;;
75928;SDS011;64606;44.062;2.986;2023-02-14T03:48:07;16.55;;;8.60;;
75928;SDS011;64606;44.062;2.986;2023-02-14T03:50:33;18.00;;;8.48;;
75928;SDS011;64606;44.062;2.986;2023-02-14T03:53:01;15.43;;;8.02;;
75928;SDS011;64606;44.062;2.986;2023-02-14T03:55:33;18.65;;;8.40;;
75928;SDS011;64606;44.062;2.986;2023-02-14T04:00:26;20.45;;;9.07;;
75928;SDS011;64606;44.062;2.986;2023-02-14T04:02:54;17.25;;;8.63;;
75928;SDS011;64606;44.062;2.986;2023-02-14T04:05:24;19.50;;;9.13;;
75928;SDS011;64606;44.062;2.986;2023-02-14T04:07:52;21.52;;;9.73;;
75928;SDS011;64606;44.062;2.986;2023-02-14T04:10:19;19.77;;;9.57;;
75928;SDS011;64606;44.062;2.986;2023-02-14T04:12:45;18.60;;;9.05;;
75928;SDS011;64606;44.062;2.986;2023-02-14T04:15:12;17.55;;;8.85;;
75928;SDS011;64606;44.062;2.986;2023-02-14T04:17:39;17.65;;;8.45;;
75928;SDS011;64606;44.062;2.986;2023-02-14T04:20:24;17.23;;;8.80;;
75928;SDS011;64606;44.062;2.986;2023-02-14T04:22:50;18.55;;;9.23;;
75928;SDS011;64606;44.062;2.986;2023-02-14T04:25:17;16.15;;;8.55;;
75928;SDS011;64606;44.062;2.986;2023-02-14T04:27:43;18.55;;;8.77;;
75928;SDS011;64606;44.062;2.986;2023-02-14T04:30:10;17.33;;;9.40;;
75928;SDS011;64606;44.062;2.986;2023-02-14T04:32:36;17.90;;;9.10;;
75928;SDS011;64606;44.062;2.986;2023-02-14T04:35:03;16.70;;;8.15;;
75928;SDS011;64606;44.062;2.986;2023-02-14T04:37:29;16.90;;;7.90;;
75928;SDS011;64606;44.062;2.986;2023-02-14T04:39:55;17.13;;;8.40;;
75928;SDS011;64606;44.062;2.986;2023-02-14T04:42:22;17.55;;;9.00;;
75928;SDS011;64606;44.062;2.986;2023-02-14T04:44:48;18.40;;;8.75;;
75928;SDS011;64606;44.062;2.986;2023-02-14T04:47:14;20.15;;;8.15;;
75928;SDS011;64606;44.062;2.986;2023-02-14T04:49:40;16.92;;;8.25;;
75928;SDS011;64606;44.062;2.986;2023-02-14T04:52:06;17.88;;;8.60;;
75928;SDS011;64606;44.062;2.986;2023-02-14T04:54:32;17.52;;;8.65;;
75928;SDS011;64606;44.062;2.986;2023-02-14T04:56:59;16.77;;;8.40;;
75928;SDS011;64606;44.062;2.986;2023-02-14T04:59:25;17.90;;;8.60;;
75928;SDS011;64606;44.062;2.986;2023-02-14T05:01:51;18.50;;;8.43;;
75928;SDS011;64606;44.062;2.986;2023-02-14T05:04:18;19.75;;;8.48;;
75928;SDS011;64606;44.062;2.986;2023-02-14T05:06:44;17.05;;;8.70;;
75928;SDS011;64606;44.062;2.986;2023-02-14T05:09:10;22.83;;;8.50;;
75928;SDS011;64606;44.062;2.986;2023-02-14T05:11:36;18.45;;;9.15;;
75928;SDS011;64606;44.062;2.986;2023-02-14T05:14:02;16.95;;;8.80;;
75928;SDS011;64606;44.062;2.986;2023-02-14T05:16:29;17.73;;;9.20;;
75928;SDS011;64606;44.062;2.986;2023-02-14T05:18:55;21.42;;;10.00;;
75928;SDS011;64606;44.062;2.986;2023-02-14T05:21:21;18.77;;;9.45;;
75928;SDS011;64606;44.062;2.986;2023-02-14T05:23:47;18.05;;;8.82;;
75928;SDS011;64606;44.062;2.986;2023-02-14T05:26:13;16.55;;;8.18;;
75928;SDS011;64606;44.062;2.986;2023-02-14T05:28:39;18.77;;;8.45;;
75928;SDS011;64606;44.062;2.986;2023-02-14T05:31:07;18.48;;;8.77;;
75928;SDS011;64606;44.062;2.986;2023-02-14T05:33:33;16.58;;;7.78;;
75928;SDS011;64606;44.062;2.986;2023-02-14T05:35:59;37.85;;;14.82;;
75928;SDS011;64606;44.062;2.986;2023-02-14T05:38:26;29.60;;;13.18;;
75928;SDS011;64606;44.062;2.986;2023-02-14T05:40:53;26.85;;;12.38;;
75928;SDS011;64606;44.062;2.986;2023-02-14T05:43:19;24.70;;;13.13;;
75928;SDS011;64606;44.062;2.986;2023-02-14T05:45:46;20.20;;;10.50;;
75928;SDS011;64606;44.062;2.986;2023-02-14T05:48:13;19.95;;;9.75;;
75928;SDS011;64606;44.062;2.986;2023-02-14T05:50:39;20.98;;;10.73;;
75928;SDS011;64606;44.062;2.986;2023-02-14T05:53:07;16.90;;;9.63;;
75928;SDS011;64606;44.062;2.986;2023-02-14T05:55:33;19.52;;;9.55;;
75928;SDS011;64606;44.062;2.986;2023-02-14T05:57:59;17.65;;;8.77;;
75928;SDS011;64606;44.062;2.986;2023-02-14T06:00:25;16.40;;;8.57;;
75928;SDS011;64606;44.062;2.986;2023-02-14T06:02:52;18.50;;;9.35;;
75928;SDS011;64606;44.062;2.986;2023-02-14T06:05:18;16.73;;;8.05;;
75928;SDS011;64606;44.062;2.986;2023-02-14T06:07:44;16.75;;;8.93;;
75928;SDS011;64606;44.062;2.986;2023-02-14T06:10:21;17.98;;;8.43;;
75928;SDS011;64606;44.062;2.986;2023-02-14T06:12:47;18.63;;;9.43;;
75928;SDS011;64606;44.062;2.986;2023-02-14T06:15:14;65.28;;;21.33;;
75928;SDS011;64606;44.062;2.986;2023-02-14T06:17:40;270.40;;;76.43;;
75928;SDS011;64606;44.062;2.986;2023-02-14T06:20:06;112.68;;;31.92;;
75928;SDS011;64606;44.062;2.986;2023-02-14T06:22:36;52.70;;;18.45;;
75928;SDS011;64606;44.062;2.986;2023-02-14T06:25:03;76.63;;;27.55;;
75928;SDS011;64606;44.062;2.986;2023-02-14T06:27:30;125.28;;;44.35;;
75928;SDS011;64606;44.062;2.986;2023-02-14T06:29:56;120.05;;;39.65;;
75928;SDS011;64606;44.062;2.986;2023-02-14T06:32:23;91.97;;;33.00;;
75928;SDS011;64606;44.062;2.986;2023-02-14T06:34:49;56.33;;;23.95;;
75928;SDS011;64606;44.062;2.986;2023-02-14T06:37:15;52.53;;;22.00;;
75928;SDS011;64606;44.062;2.986;2023-02-14T06:39:41;44.47;;;19.15;;
75928;SDS011;64606;44.062;2.986;2023-02-14T06:42:09;32.35;;;14.32;;
75928;SDS011;64606;44.062;2.986;2023-02-14T06:44:35;23.48;;;11.48;;
75928;SDS011;64606;44.062;2.986;2023-02-14T06:47:01;42.17;;;21.52;;
75928;SDS011;64606;44.062;2.986;2023-02-14T06:49:28;26.10;;;13.10;;
75928;SDS011;64606;44.062;2.986;2023-02-14T06:51:54;21.40;;;10.40;;
75928;SDS011;64606;44.062;2.986;2023-02-14T06:54:20;23.75;;;11.27;;
75928;SDS011;64606;44.062;2.986;2023-02-14T06:56:46;21.85;;;11.77;;
75928;SDS011;64606;44.062;2.986;2023-02-14T06:59:13;23.20;;;9.90;;
75928;SDS011;64606;44.062;2.986;2023-02-14T07:01:39;16.88;;;9.38;;
75928;SDS011;64606;44.062;2.986;2023-02-14T07:04:05;19.10;;;9.90;;
75928;SDS011;64606;44.062;2.986;2023-02-14T07:06:31;20.60;;;10.45;;
75928;SDS011;64606;44.062;2.986;2023-02-14T07:08:57;26.67;;;11.65;;
75928;SDS011;64606;44.062;2.986;2023-02-14T07:11:23;24.65;;;10.60;;
75928;SDS011;64606;44.062;2.986;2023-02-14T07:13:50;21.02;;;11.43;;
75928;SDS011;64606;44.062;2.986;2023-02-14T07:16:16;17.73;;;10.48;;
75928;SDS011;64606;44.062;2.986;2023-02-14T07:18:42;22.98;;;10.38;;
75928;SDS011;64606;44.062;2.986;2023-02-14T07:21:11;29.02;;;13.93;;
75928;SDS011;64606;44.062;2.986;2023-02-14T07:23:37;23.98;;;11.15;;
75928;SDS011;64606;44.062;2.986;2023-02-14T07:26:03;18.75;;;9.80;;
75928;SDS011;64606;44.062;2.986;2023-02-14T07:28:31;21.77;;;9.20;;
75928;SDS011;64606;44.062;2.986;2023-02-14T07:31:00;28.27;;;11.98;;
75928;SDS011;64606;44.062;2.986;2023-02-14T07:33:27;27.38;;;13.38;;
75928;SDS011;64606;44.062;2.986;2023-02-14T07:35:53;17.95;;;9.18;;
75928;SDS011;64606;44.062;2.986;2023-02-14T07:38:19;21.08;;;11.18;;
75928;SDS011;64606;44.062;2.986;2023-02-14T07:40:45;21.45;;;9.65;;
75928;SDS011;64606;44.062;2.986;2023-02-14T07:43:11;25.75;;;12.75;;
75928;SDS011;64606;44.062;2.986;2023-02-14T07:45:37;19.02;;;10.18;;
75928;SDS011;64606;44.062;2.986;2023-02-14T07:48:03;21.13;;;11.25;;
75928;SDS011;64606;44.062;2.986;2023-02-14T07:50:30;26.10;;;12.35;;
75928;SDS011;64606;44.062;2.986;2023-02-14T07:52:56;25.27;;;12.32;;
75928;SDS011;64606;44.062;2.986;2023-02-14T07:55:22;23.63;;;12.38;;
75928;SDS011;64606;44.062;2.986;2023-02-14T07:57:51;20.92;;;9.82;;
75928;SDS011;64606;44.062;2.986;2023-02-14T08:00:17;21.88;;;11.07;;
75928;SDS011;64606;44.062;2.986;2023-02-14T08:02:44;22.75;;;11.65;;
75928;SDS011;64606;44.062;2.986;2023-02-14T08:05:10;22.15;;;11.23;;
75928;SDS011;64606;44.062;2.986;2023-02-14T08:07:36;26.17;;;10.80;;
75928;SDS011;64606;44.062;2.986;2023-02-14T08:10:02;25.85;;;11.18;;
75928;SDS011;64606;44.062;2.986;2023-02-14T08:12:28;23.85;;;12.77;;
75928;SDS011;64606;44.062;2.986;2023-02-14T08:15:27;80.05;;;30.35;;
75928;SDS011;64606;44.062;2.986;2023-02-14T08:18:12;65.65;;;30.10;;
75928;SDS011;64606;44.062;2.986;2023-02-14T08:20:39;55.10;;;27.83;;
75928;SDS011;64606;44.062;2.986;2023-02-14T08:23:05;40.53;;;19.63;;
75928;SDS011;64606;44.062;2.986;2023-02-14T08:25:31;31.25;;;16.25;;
75928;SDS011;64606;44.062;2.986;2023-02-14T08:27:57;30.83;;;14.30;;
75928;SDS011;64606;44.062;2.986;2023-02-14T08:30:23;30.60;;;13.98;;
75928;SDS011;64606;44.062;2.986;2023-02-14T08:32:50;25.35;;;13.07;;
75928;SDS011;64606;44.062;2.986;2023-02-14T08:35:16;59.20;;;23.23;;
75928;SDS011;64606;44.062;2.986;2023-02-14T08:37:42;65.25;;;25.40;;
75928;SDS011;64606;44.062;2.986;2023-02-14T08:40:08;76.57;;;25.85;;
75928;SDS011;64606;44.062;2.986;2023-02-14T08:42:34;66.93;;;23.17;;
75928;SDS011;64606;44.062;2.986;2023-02-14T08:45:00;41.45;;;19.15;;
75928;SDS011;64606;44.062;2.986;2023-02-14T08:47:27;46.47;;;20.65;;
75928;SDS011;64606;44.062;2.986;2023-02-14T08:49:53;76.50;;;33.42;;
75928;SDS011;64606;44.062;2.986;2023-02-14T08:52:19;69.60;;;30.63;;
75928;SDS011;64606;44.062;2.986;2023-02-14T08:54:45;88.00;;;32.30;;
75928;SDS011;64606;44.062;2.986;2023-02-14T08:57:11;92.70;;;28.45;;
75928;SDS011;64606;44.062;2.986;2023-02-14T08:59:39;62.78;;;22.67;;
75928;SDS011;64606;44.062;2.986;2023-02-14T09:02:05;57.80;;;20.95;;
75928;SDS011;64606;44.062;2.986;2023-02-14T09:04:33;53.13;;;20.02;;
75928;SDS011;64606;44.062;2.986;2023-02-14T09:06:59;44.03;;;17.60;;
75928;SDS011;64606;44.062;2.986;2023-02-14T09:09:26;43.45;;;16.30;;
75928;SDS011;64606;44.062;2.986;2023-02-14T09:11:52;28.20;;;13.02;;
75928;SDS011;64606;44.062;2.986;2023-02-14T09:14:20;26.02;;;10.75;;
75928;SDS011;64606;44.062;2.986;2023-02-14T09:16:48;22.92;;;10.50;;
75928;SDS011;64606;44.062;2.986;2023-02-14T09:19:14;20.08;;;9.57;;
75928;SDS011;64606;44.062;2.986;2023-02-14T09:21:40;20.92;;;9.38;;
75928;SDS011;64606;44.062;2.986;2023-02-14T09:24:06;19.00;;;8.20;;
75928;SDS011;64606;44.062;2.986;2023-02-14T09:26:33;25.23;;;10.10;;
75928;SDS011;64606;44.062;2.986;2023-02-14T09:29:01;24.20;;;9.77;;
75928;SDS011;64606;44.062;2.986;2023-02-14T09:31:27;18.33;;;9.07;;
75928;SDS011;64606;44.062;2.986;2023-02-14T09:33:53;19.25;;;8.85;;
75928;SDS011;64606;44.062;2.986;2023-02-14T09:36:20;25.25;;;10.43;;
75928;SDS011;64606;44.062;2.986;2023-02-14T09:38:46;20.23;;;9.13;;
75928;SDS011;64606;44.062;2.986;2023-02-14T09:41:28;22.13;;;9.07;;
75928;SDS011;64606;44.062;2.986;2023-02-14T09:46:24;24.27;;;9.32;;
75928;SDS011;64606;44.062;2.986;2023-02-14T09:48:51;20.10;;;9.32;;
75928;SDS011;64606;44.062;2.986;2023-02-14T09:51:20;22.42;;;9.70;;
75928;SDS011;64606;44.062;2.986;2023-02-14T09:56:24;18.42;;;9.32;;
75928;SDS011;64606;44.062;2.986;2023-02-14T10:01:22;17.52;;;8.98;;
75928;SDS011;64606;44.062;2.986;2023-02-14T10:09:06;24.25;;;10.13;;
75928;SDS011;64606;44.062;2.986;2023-02-14T10:11:37;22.20;;;10.23;;
75928;SDS011;64606;44.062;2.986;2023-02-14T10:14:13;20.83;;;10.68;;
75928;SDS011;64606;44.062;2.986;2023-02-14T10:16:42;19.48;;;9.90;;
75928;SDS011;64606;44.062;2.986;2023-02-14T10:19:19;18.67;;;9.27;;
75928;SDS011;64606;44.062;2.986;2023-02-14T10:22:03;19.35;;;9.30;;
75928;SDS011;64606;44.062;2.986;2023-02-14T10:24:36;19.95;;;9.48;;
75928;SDS011;64606;44.062;2.986;2023-02-14T10:29:42;18.77;;;8.82;;
75928;SDS011;64606;44.062;2.986;2023-02-14T10:32:12;16.90;;;9.27;;
75928;SDS011;64606;44.062;2.986;2023-02-14T10:47:34;20.23;;;10.05;;
75928;SDS011;64606;44.062;2.986;2023-02-14T10:50:12;20.65;;;10.52;;
75928;SDS011;64606;44.062;2.986;2023-02-14T10:57:56;18.45;;;9.60;;
75928;SDS011;64606;44.062;2.986;2023-02-14T11:02:50;20.20;;;9.32;;
75928;SDS011;64606;44.062;2.986;2023-02-14T11:05:31;16.15;;;9.20;;
75928;SDS011;64606;44.062;2.986;2023-02-14T11:07:59;11.85;;;5.78;;
75928;SDS011;64606;44.062;2.986;2023-02-14T11:10:30;13.88;;;6.75;;
75928;SDS011;64606;44.062;2.986;2023-02-14T11:12:56;13.73;;;4.82;;
75928;SDS011;64606;44.062;2.986;2023-02-14T11:15:25;8.95;;;4.50;;
75928;SDS011;64606;44.062;2.986;2023-02-14T11:20:37;7.20;;;4.60;;
75928;SDS011;64606;44.062;2.986;2023-02-14T11:23:16;11.45;;;4.88;;
75928;SDS011;64606;44.062;2.986;2023-02-14T11:25:43;9.95;;;5.15;;
75928;SDS011;64606;44.062;2.986;2023-02-14T11:28:14;10.48;;;5.07;;
75928;SDS011;64606;44.062;2.986;2023-02-14T11:30:41;9.07;;;5.50;;
75928;SDS011;64606;44.062;2.986;2023-02-14T11:33:21;31.75;;;10.18;;
75928;SDS011;64606;44.062;2.986;2023-02-14T11:35:51;27.60;;;9.40;;
75928;SDS011;64606;44.062;2.986;2023-02-14T11:40:54;7.00;;;4.53;;
75928;SDS011;64606;44.062;2.986;2023-02-14T11:43:31;18.38;;;10.05;;
75928;SDS011;64606;44.062;2.986;2023-02-14T11:46:06;10.43;;;5.90;;
75928;SDS011;64606;44.062;2.986;2023-02-14T11:48:32;12.63;;;5.65;;
75928;SDS011;64606;44.062;2.986;2023-02-14T11:50:59;12.95;;;4.70;;
75928;SDS011;64606;44.062;2.986;2023-02-14T11:53:28;9.50;;;5.15;;
75928;SDS011;64606;44.062;2.986;2023-02-14T11:55:55;15.90;;;6.82;;
75928;SDS011;64606;44.062;2.986;2023-02-14T12:00:58;10.80;;;4.07;;
75928;SDS011;64606;44.062;2.986;2023-02-14T12:03:25;6.47;;;3.85;;
75928;SDS011;64606;44.062;2.986;2023-02-14T12:05:52;7.60;;;4.03;;
75928;SDS011;64606;44.062;2.986;2023-02-14T12:08:24;7.72;;;3.60;;
75928;SDS011;64606;44.062;2.986;2023-02-14T12:11:02;11.38;;;4.07;;
75928;SDS011;64606;44.062;2.986;2023-02-14T12:13:29;8.57;;;4.60;;
75928;SDS011;64606;44.062;2.986;2023-02-14T12:15:56;5.47;;;3.75;;
75928;SDS011;64606;44.062;2.986;2023-02-14T12:28:59;8.32;;;3.38;;
75928;SDS011;64606;44.062;2.986;2023-02-14T12:31:28;5.30;;;3.60;;
75928;SDS011;64606;44.062;2.986;2023-02-14T12:33:54;8.73;;;3.45;;
75928;SDS011;64606;44.062;2.986;2023-02-14T12:41:19;6.70;;;3.00;;
75928;SDS011;64606;44.062;2.986;2023-02-14T12:43:52;8.60;;;4.30;;
75928;SDS011;64606;44.062;2.986;2023-02-14T12:51:21;6.95;;;3.20;;
75928;SDS011;64606;44.062;2.986;2023-02-14T12:56:40;6.13;;;3.60;;
75928;SDS011;64606;44.062;2.986;2023-02-14T13:06:55;7.40;;;2.72;;
75928;SDS011;64606;44.062;2.986;2023-02-14T13:09:26;4.47;;;2.60;;
75928;SDS011;64606;44.062;2.986;2023-02-14T13:16:56;4.75;;;2.67;;
75928;SDS011;64606;44.062;2.986;2023-02-14T13:21:50;5.40;;;3.03;;
75928;SDS011;64606;44.062;2.986;2023-02-14T13:24:24;5.50;;;2.90;;
75928;SDS011;64606;44.062;2.986;2023-02-14T13:26:52;5.35;;;2.97;;
75928;SDS011;64606;44.062;2.986;2023-02-14T13:29:21;5.20;;;2.65;;
75928;SDS011;64606;44.062;2.986;2023-02-14T13:31:48;5.13;;;3.03;;
75928;SDS011;64606;44.062;2.986;2023-02-14T13:34:24;4.78;;;3.10;;
75928;SDS011;64606;44.062;2.986;2023-02-14T13:36:51;5.45;;;3.42;;
75928;SDS011;64606;44.062;2.986;2023-02-14T13:39:25;7.15;;;3.20;;
75928;SDS011;64606;44.062;2.986;2023-02-14T13:41:54;6.28;;;3.20;;
75928;SDS011;64606;44.062;2.986;2023-02-14T13:45:02;5.57;;;3.55;;
75928;SDS011;64606;44.062;2.986;2023-02-14T13:47:19;10.80;;;5.30;;
75928;SDS011;64606;44.062;2.986;2023-02-14T13:49:47;19.10;;;9.43;;
75928;SDS011;64606;44.062;2.986;2023-02-14T13:52:13;11.52;;;5.80;;
75928;SDS011;64606;44.062;2.986;2023-02-14T13:55:05;7.00;;;3.80;;
75928;SDS011;64606;44.062;2.986;2023-02-14T13:57:35;7.68;;;3.63;;
75928;SDS011;64606;44.062;2.986;2023-02-14T14:02:52;4.63;;;3.10;;
75928;SDS011;64606;44.062;2.986;2023-02-14T14:14:24;5.80;;;3.15;;
75928;SDS011;64606;44.062;2.986;2023-02-14T14:18:48;5.00;;;2.97;;
75928;SDS011;64606;44.062;2.986;2023-02-14T14:21:20;4.60;;;2.90;;
75928;SDS011;64606;44.062;2.986;2023-02-14T14:26:33;4.03;;;3.08;;
75928;SDS011;64606;44.062;2.986;2023-02-14T14:29:00;5.10;;;2.70;;
75928;SDS011;64606;44.062;2.986;2023-02-14T14:31:27;5.38;;;2.78;;
75928;SDS011;64606;44.062;2.986;2023-02-14T14:33:58;5.82;;;3.00;;
75928;SDS011;64606;44.062;2.986;2023-02-14T14:36:25;3.75;;;2.83;;
75928;SDS011;64606;44.062;2.986;2023-02-14T14:38:51;5.38;;;2.80;;
75928;SDS011;64606;44.062;2.986;2023-02-14T14:41:27;5.90;;;3.53;;
75928;SDS011;64606;44.062;2.986;2023-02-14T14:43:53;7.45;;;3.20;;
75928;SDS011;64606;44.062;2.986;2023-02-14T14:46:19;6.97;;;3.65;;
75928;SDS011;64606;44.062;2.986;2023-02-14T14:48:49;6.93;;;3.95;;
75928;SDS011;64606;44.062;2.986;2023-02-14T14:51:36;5.03;;;3.45;;
75928;SDS011;64606;44.062;2.986;2023-02-14T14:56:30;5.45;;;3.20;;
75928;SDS011;64606;44.062;2.986;2023-02-14T14:58:57;5.13;;;2.83;;
75928;SDS011;64606;44.062;2.986;2023-02-14T15:01:45;6.47;;;3.20;;
75928;SDS011;64606;44.062;2.986;2023-02-14T15:04:15;6.07;;;3.85;;
75928;SDS011;64606;44.062;2.986;2023-02-14T15:06:42;5.03;;;3.00;;
75928;SDS011;64606;44.062;2.986;2023-02-14T15:09:15;5.88;;;3.28;;
75928;SDS011;64606;44.062;2.986;2023-02-14T15:11:43;6.38;;;3.80;;
75928;SDS011;64606;44.062;2.986;2023-02-14T15:14:29;8.23;;;3.83;;
75928;SDS011;64606;44.062;2.986;2023-02-14T15:17:21;5.50;;;3.38;;
75928;SDS011;64606;44.062;2.986;2023-02-14T15:19:46;5.80;;;3.70;;
75928;SDS011;64606;44.062;2.986;2023-02-14T15:22:32;5.60;;;3.90;;
75928;SDS011;64606;44.062;2.986;2023-02-14T15:25:06;6.88;;;3.90;;
75928;SDS011;64606;44.062;2.986;2023-02-14T15:27:32;8.07;;;4.03;;
75928;SDS011;64606;44.062;2.986;2023-02-14T15:30:00;9.05;;;4.50;;
75928;SDS011;64606;44.062;2.986;2023-02-14T15:32:30;9.10;;;4.57;;
75928;SDS011;64606;44.062;2.986;2023-02-14T15:34:58;7.05;;;4.18;;
75928;SDS011;64606;44.062;2.986;2023-02-14T15:37:25;6.53;;;4.70;;
75928;SDS011;64606;44.062;2.986;2023-02-14T15:39:52;9.10;;;4.95;;
75928;SDS011;64606;44.062;2.986;2023-02-14T15:42:29;13.32;;;6.00;;
75928;SDS011;64606;44.062;2.986;2023-02-14T15:47:41;8.02;;;4.95;;
75928;SDS011;64606;44.062;2.986;2023-02-14T15:52:41;8.15;;;5.50;;
75928;SDS011;64606;44.062;2.986;2023-02-14T15:55:08;9.63;;;6.18;;
75928;SDS011;64606;44.062;2.986;2023-02-14T15:57:34;10.38;;;6.13;;
75928;SDS011;64606;44.062;2.986;2023-02-14T16:00:03;13.45;;;6.45;;
75928;SDS011;64606;44.062;2.986;2023-02-14T16:02:36;13.47;;;6.40;;
75928;SDS011;64606;44.062;2.986;2023-02-14T16:05:20;12.32;;;6.57;;
75928;SDS011;64606;44.062;2.986;2023-02-14T16:07:54;12.27;;;6.78;;
75928;SDS011;64606;44.062;2.986;2023-02-14T16:15:21;9.73;;;6.95;;
75928;SDS011;64606;44.062;2.986;2023-02-14T16:17:47;13.13;;;8.00;;
75928;SDS011;64606;44.062;2.986;2023-02-14T16:25:39;14.55;;;8.25;;
75928;SDS011;64606;44.062;2.986;2023-02-14T16:28:05;15.23;;;9.93;;
75928;SDS011;64606;44.062;2.986;2023-02-14T16:30:33;16.38;;;9.20;;
75928;SDS011;64606;44.062;2.986;2023-02-14T16:32:59;18.77;;;8.93;;
75928;SDS011;64606;44.062;2.986;2023-02-14T16:35:25;18.08;;;9.43;;
75928;SDS011;64606;44.062;2.986;2023-02-14T16:37:51;14.73;;;9.82;;
75928;SDS011;64606;44.062;2.986;2023-02-14T16:40:18;19.17;;;10.38;;
75928;SDS011;64606;44.062;2.986;2023-02-14T16:42:44;15.90;;;9.88;;
75928;SDS011;64606;44.062;2.986;2023-02-14T16:45:15;16.45;;;9.50;;
75928;SDS011;64606;44.062;2.986;2023-02-14T16:47:41;23.48;;;10.02;;
75928;SDS011;64606;44.062;2.986;2023-02-14T16:50:07;18.33;;;10.35;;
75928;SDS011;64606;44.062;2.986;2023-02-14T16:52:33;21.65;;;11.02;;
75928;SDS011;64606;44.062;2.986;2023-02-14T16:55:00;20.02;;;11.30;;
75928;SDS011;64606;44.062;2.986;2023-02-14T16:57:36;16.55;;;10.65;;
75928;SDS011;64606;44.062;2.986;2023-02-14T17:00:05;15.27;;;9.40;;
75928;SDS011;64606;44.062;2.986;2023-02-14T17:02:34;19.13;;;10.98;;
75928;SDS011;64606;44.062;2.986;2023-02-14T17:05:00;28.73;;;13.75;;
75928;SDS011;64606;44.062;2.986;2023-02-14T17:07:27;24.30;;;13.27;;
75928;SDS011;64606;44.062;2.986;2023-02-14T17:09:55;14.65;;;10.02;;
75928;SDS011;64606;44.062;2.986;2023-02-14T17:12:24;15.10;;;8.68;;
75928;SDS011;64606;44.062;2.986;2023-02-14T17:14:52;14.02;;;9.20;;